createdAt,value
2023-04-13T00:04:27.768Z,19.00
2023-04-13T00:09:31.589Z,15.90
2023-04-13T00:14:35.982Z,16.20
2023-04-13T00:19:41.700Z,18.70
2023-04-13T00:24:46.354Z,16.70
2023-04-13T00:29:48.793Z,17.30
2023-04-13T00:34:52.290Z,19.80
2023-04-13T00:39:55.695Z,16.80
2023-04-13T00:44:59.686Z,20.50
2023-04-13T00:50:06.497Z,18.80
2023-04-13T00:55:10.643Z,19.30
2023-04-13T01:00:14.846Z,18.70
2023-04-13T01:05:19.970Z,15.90
2023-04-13T01:10:28.652Z,17.40
2023-04-13T01:15:38.213Z,16.60
2023-04-13T01:20:47.347Z,15.30
2023-04-13T01:26:09.361Z,14.60
2023-04-13T01:31:15.758Z,16.00
2023-04-13T01:36:19.732Z,16.40
2023-04-13T01:41:24.406Z,16.40
2023-04-13T01:46:34.592Z,13.30
2023-04-13T01:51:39.609Z,19.00
2023-04-13T01:56:44.560Z,29.80
2023-04-13T02:01:47.031Z,33.00
2023-04-13T02:06:52.361Z,40.10
2023-04-13T02:11:55.734Z,26.40
2023-04-13T02:16:59.044Z,25.30
2023-04-13T02:22:02.086Z,23.40
2023-04-13T02:27:05.546Z,22.80
2023-04-13T02:32:09.217Z,15.20
2023-04-13T02:37:13.150Z,18.70
2023-04-13T02:42:16.442Z,13.10
2023-04-13T02:47:19.020Z,17.00
2023-04-13T02:52:22.059Z,34.30
2023-04-13T02:57:26.363Z,16.70
2023-04-13T03:02:31.698Z,21.60
2023-04-13T03:07:36.214Z,32.70
2023-04-13T03:12:39.653Z,22.80
2023-04-13T03:17:44.065Z,18.00
2023-04-13T03:22:46.709Z,17.50
2023-04-13T03:27:50.284Z,19.60
2023-04-13T03:32:53.788Z,25.90
2023-04-13T03:37:57.529Z,17.90
2023-04-13T03:43:00.335Z,16.10
2023-04-13T03:48:03.547Z,14.20
2023-04-13T03:53:06.702Z,17.30
2023-04-13T03:58:11.897Z,16.70
2023-04-13T04:03:18.803Z,16.80
2023-04-13T04:08:22.127Z,43.30
2023-04-13T04:13:26.729Z,37.50
2023-04-13T04:18:31.172Z,48.70
2023-04-13T04:23:37.702Z,22.40
2023-04-13T04:28:40.905Z,19.00
2023-04-13T04:33:44.109Z,24.60
2023-04-13T04:38:48.056Z,49.10
2023-04-13T04:43:50.489Z,19.80
2023-04-13T04:48:55.334Z,19.70
2023-04-13T04:54:01.928Z,18.30
2023-04-13T04:59:05.124Z,16.50
2023-04-13T05:04:08.834Z,18.40
2023-04-13T05:09:12.023Z,15.80
2023-04-13T05:14:15.921Z,16.10
2023-04-13T05:19:19.259Z,22.50
2023-04-13T05:24:23.012Z,16.60
2023-04-13T05:29:26.484Z,19.20
2023-04-13T05:34:31.002Z,14.40
2023-04-13T05:39:34.549Z,16.30
2023-04-13T05:44:37.766Z,11.40
2023-04-13T05:49:41.128Z,13.60
2023-04-13T05:54:43.076Z,13.20
2023-04-13T05:59:45.557Z,11.00
2023-04-13T06:04:49.406Z,13.20
2023-04-13T06:09:53.701Z,14.30
2023-04-13T06:14:56.220Z,15.30
2023-04-13T06:20:00.184Z,13.90
2023-04-13T06:25:04.377Z,11.10
2023-04-13T06:30:08.419Z,12.70
2023-04-13T06:35:13.163Z,14.70
2023-04-13T06:40:16.878Z,13.30
2023-04-13T06:45:20.404Z,13.90
2023-04-13T06:50:23.255Z,14.80
2023-04-13T06:55:26.137Z,13.00
2023-04-13T07:00:30.670Z,14.20
2023-04-13T07:05:38.757Z,14.70
2023-04-13T07:10:45.158Z,13.10
2023-04-13T07:15:48.391Z,13.70
2023-04-13T07:20:51.646Z,12.90
2023-04-13T07:25:55.038Z,11.80
2023-04-13T07:30:58.542Z,13.00
2023-04-13T07:36:01.986Z,12.30
2023-04-13T07:41:05.305Z,12.50
2023-04-13T07:46:13.144Z,13.70
2023-04-13T07:51:19.820Z,11.50
2023-04-13T07:56:23.481Z,10.60
2023-04-13T08:01:28.362Z,11.80
2023-04-13T08:06:35.274Z,10.30
2023-04-13T08:11:39.655Z,11.70
2023-04-13T08:16:43.486Z,12.40
2023-04-13T08:21:46.892Z,12.00
2023-04-13T08:26:49.529Z,10.90
2023-04-13T08:31:53.683Z,9.30
2023-04-13T08:36:57.502Z,10.60
2023-04-13T08:42:01.382Z,10.70
2023-04-13T08:47:04.808Z,8.80
2023-04-13T08:52:10.843Z,9.80
2023-04-13T08:57:16.850Z,8.50
2023-04-13T09:02:28.495Z,7.90
2023-04-13T09:07:36.242Z,7.30
2023-04-13T09:12:42.006Z,6.90
2023-04-13T09:17:46.268Z,6.80
2023-04-13T09:22:50.142Z,6.70
2023-04-13T09:27:56.980Z,4.20
2023-04-13T09:33:09.309Z,3.60
2023-04-13T09:38:16.504Z,4.70
2023-04-13T09:43:22.187Z,4.50
2023-04-13T09:48:25.376Z,4.80
2023-04-13T09:53:39.774Z,3.90
2023-04-13T09:58:44.770Z,4.60
2023-04-13T10:03:48.496Z,4.50
2023-04-13T10:08:51.937Z,4.40
2023-04-13T10:13:59.626Z,6.00
2023-04-13T10:19:16.316Z,4.40
2023-04-13T10:24:20.868Z,5.10
2023-04-13T10:29:32.893Z,6.20
2023-04-13T10:34:40.741Z,4.60
2023-04-13T10:39:43.385Z,5.90
2023-04-13T10:44:51.353Z,5.00
2023-04-13T10:49:54.190Z,4.00
2023-04-13T10:54:57.972Z,4.00
2023-04-13T11:00:00.676Z,4.80
2023-04-13T11:05:05.002Z,3.50
2023-04-13T11:10:10.316Z,4.70
2023-04-13T11:15:19.241Z,4.30
2023-04-13T11:20:37.359Z,4.60
2023-04-13T11:25:53.031Z,3.20
2023-04-13T11:30:57.110Z,5.50
2023-04-13T11:36:02.698Z,4.40
2023-04-13T11:41:15.080Z,3.60
2023-04-13T11:46:28.429Z,3.80
2023-04-13T11:51:33.274Z,3.60
2023-04-13T11:56:36.823Z,3.00
2023-04-13T12:01:49.406Z,3.70
2023-04-13T12:06:54.328Z,3.20
2023-04-13T12:12:29.817Z,3.20
2023-04-13T12:17:39.190Z,3.50
2023-04-13T12:27:53.807Z,3.30
2023-04-13T12:32:57.349Z,2.80
2023-04-13T12:38:01.984Z,3.20
2023-04-13T12:43:05.907Z,3.30
2023-04-13T12:48:14.485Z,3.20
2023-04-13T12:53:18.087Z,3.00
2023-04-13T12:58:20.764Z,3.00
2023-04-13T13:03:24.452Z,3.60
2023-04-13T13:08:27.459Z,3.20
2023-04-13T13:13:30.571Z,3.40
2023-04-13T13:18:48.968Z,3.80
2023-04-13T13:23:55.108Z,3.20
2023-04-13T13:28:59.970Z,3.80
2023-04-13T13:34:02.891Z,3.60
2023-04-13T13:39:05.928Z,3.20
2023-04-13T13:44:10.151Z,3.40
2023-04-13T13:49:12.795Z,4.40
2023-04-13T13:54:21.897Z,3.40
2023-04-13T13:59:26.608Z,3.80
2023-04-13T14:04:30.744Z,4.10
2023-04-13T14:09:35.008Z,3.50
2023-04-13T14:14:38.007Z,3.30
2023-04-13T14:19:41.327Z,3.50
2023-04-13T14:24:46.855Z,3.40
2023-04-13T14:29:50.480Z,3.30
2023-04-13T14:34:53.023Z,3.10
2023-04-13T14:39:55.089Z,3.40
2023-04-13T14:44:57.650Z,2.90
2023-04-13T14:50:00.755Z,3.30
2023-04-13T14:55:03.867Z,3.00
2023-04-13T15:00:21.608Z,4.20
2023-04-13T15:05:25.278Z,5.00
2023-04-13T15:10:27.944Z,4.80
2023-04-13T15:15:32.320Z,4.60
2023-04-13T15:20:34.868Z,3.90
2023-04-13T15:25:38.808Z,5.10
2023-04-13T15:30:43.327Z,4.80
2023-04-13T15:35:46.362Z,4.60
2023-04-13T15:40:49.472Z,5.60
2023-04-13T15:45:56.698Z,5.70
2023-04-13T15:51:00.895Z,4.70
2023-04-13T15:56:08.510Z,4.20
2023-04-13T16:01:13.259Z,4.70
2023-04-13T16:06:16.522Z,6.30
2023-04-13T16:11:20.793Z,4.90
2023-04-13T16:16:26.927Z,4.40
2023-04-13T16:21:30.455Z,5.30
2023-04-13T16:26:34.012Z,5.80
2023-04-13T16:31:36.989Z,5.10
2023-04-13T16:36:40.106Z,5.10
2023-04-13T16:41:44.188Z,6.00
2023-04-13T16:46:47.641Z,4.80
2023-04-13T16:51:53.455Z,3.40
2023-04-13T16:56:58.676Z,3.60
2023-04-13T17:02:01.599Z,4.40
2023-04-13T17:07:11.766Z,4.70
2023-04-13T17:12:16.222Z,4.40
2023-04-13T17:17:18.518Z,5.90
2023-04-13T17:22:22.223Z,4.90
2023-04-13T17:27:27.202Z,5.70
2023-04-13T17:32:31.651Z,5.10
2023-04-13T17:37:34.783Z,6.10
2023-04-13T17:42:38.623Z,4.20
2023-04-13T17:47:43.832Z,5.00
2023-04-13T17:52:47.722Z,4.10
2023-04-13T17:57:50.816Z,3.70
2023-04-13T18:02:56.907Z,4.50
2023-04-13T18:08:01.265Z,5.20
2023-04-13T18:13:05.427Z,4.10
2023-04-13T18:18:08.188Z,4.70
2023-04-13T18:23:11.842Z,5.70
2023-04-13T18:28:16.185Z,7.20
2023-04-13T18:33:20.320Z,7.60
2023-04-13T18:38:24.224Z,7.60
2023-04-13T18:43:28.085Z,7.90
2023-04-13T18:48:32.077Z,8.10
2023-04-13T18:53:34.911Z,7.50
2023-04-13T18:58:37.974Z,8.60
2023-04-13T19:03:42.525Z,7.90
2023-04-13T19:08:47.470Z,7.40
2023-04-13T19:13:51.809Z,9.00
2023-04-13T19:18:54.624Z,8.00
2023-04-13T19:23:59.991Z,8.60
2023-04-13T19:29:03.933Z,7.10
2023-04-13T19:34:10.564Z,8.30
2023-04-13T19:44:18.126Z,9.00
2023-04-13T19:49:23.476Z,8.00
2023-04-13T19:54:27.612Z,10.60
2023-04-13T19:59:32.603Z,11.70
2023-04-13T20:04:37.096Z,12.70
2023-04-13T20:09:39.618Z,12.00
2023-04-13T20:14:42.690Z,9.20
2023-04-13T20:19:46.687Z,10.40
2023-04-13T20:24:49.982Z,8.00
2023-04-13T20:29:56.648Z,10.00
2023-04-13T20:35:00.794Z,7.80
2023-04-13T20:40:07.090Z,11.60
2023-04-13T20:45:12.748Z,13.10
2023-04-13T20:50:26.980Z,11.10
2023-04-13T20:55:31.663Z,12.90
2023-04-13T21:00:35.198Z,14.70
2023-04-13T21:05:39.256Z,24.90
2023-04-13T21:10:43.594Z,21.10
2023-04-13T21:15:47.763Z,20.10
2023-04-13T21:20:50.935Z,17.80
2023-04-13T21:25:54.346Z,19.60
2023-04-13T21:30:57.637Z,30.60
2023-04-13T21:36:51.221Z,23.20
2023-04-13T21:41:27.902Z,17.80
2023-04-13T21:46:30.369Z,17.40
2023-04-13T21:51:33.148Z,19.30
2023-04-13T21:56:37.247Z,18.30
2023-04-13T22:01:40.303Z,19.10
2023-04-13T22:06:43.380Z,19.00
2023-04-13T22:11:46.131Z,18.50
2023-04-13T22:16:48.934Z,16.70
2023-04-13T22:21:52.157Z,17.50
2023-04-13T22:26:55.423Z,17.00
2023-04-13T22:32:00.090Z,17.10
2023-04-13T22:37:04.794Z,17.50
2023-04-13T22:42:08.267Z,14.20
2023-04-13T22:47:14.567Z,18.50
2023-04-13T22:52:19.218Z,17.00
2023-04-13T22:57:24.166Z,17.50
2023-04-13T23:02:27.635Z,17.20
2023-04-13T23:07:34.068Z,16.70
2023-04-13T23:12:37.091Z,15.40
2023-04-13T23:17:40.567Z,16.90
2023-04-13T23:22:43.961Z,16.20
2023-04-13T23:27:50.384Z,17.90
2023-04-13T23:32:54.797Z,14.40
2023-04-13T23:37:58.461Z,15.50
2023-04-13T23:43:01.573Z,15.90
2023-04-13T23:48:03.744Z,18.40
2023-04-13T23:53:06.628Z,24.40
2023-04-13T23:58:10.185Z,29.90
